Terminal Aerodrome Forecast
Issued by NWS Wilmington, OH

Current Version | Previous Version | Text Only | Print | Product List | Glossary Off
Versions: 1 2 3 4 5 6 7 8 9 10 11 12 13 14

545
FTUS41 KILN 252227 AAB
TAFILN
TAF AMD
KILN 252227Z 2522/2618 17014KT P6SM BKN130
     FM260400 14006KT P6SM VCSH BKN090
     FM260800 16006KT 6SM -SHRA BR OVC090
     FM261200 16007KT 4SM -SHRA BR OVC025=

USA.gov is the U.S. government's official web portal to all federal, state and local government web resources and services.